KPUB/PUB METAR and TAF weather

Enter ICAO airport designator
Station Type Date Time Source
KPUB METAR 2019/06/16 20:53 UTC NOAA

KPUB 162053Z 13018G25KT 10SM CLR 29/07 A2995 RMK AO2 PK WND 13027/2016 SLP083 T02940067 56027


Station Type Date Time Source
KPUB Decoded METAR 2019/06/16 20:53 UTC NOAA

PUEBLO MEMORIAL AIRPORT, CO, United States (KPUB) 38-17N 104-30W 1420M
Jun 16, 2019 - 04:53 PM EDT / 2019.06.16 2053 UTC
Wind: from the SE (130 degrees) at 21 MPH (18 KT) gusting to 29 MPH (25 KT):0
Visibility: 10 mile(s):0
Sky conditions: clear
Temperature: 84.9 F (29.4 C)
Dew Point: 44.1 F (6.7 C)
Relative Humidity: 23%
Pressure (altimeter): 29.95 in. Hg (1014 hPa)
Pressure tendency: 0.08 inches (2.7 hPa) lower than three hours ago
ob: KPUB 162053Z 13018G25KT 10SM CLR 29/07 A2995 RMK AO2 PK WND 13027/2016 SLP083 T02940067 56027
cycle: 21

Station Type Date Time Source
KPUB TAF 2019/06/16 21:39 UTC NOAA

TAF
AMD KPUB 162037Z 1621/1718 15015G25KT P6SM SCT200
FM170100 34013KT P6SM VCTS SCT050CB BKN070
FM170300 VRB06KT P6SM FEW100
FM171700 13008KT P6SM FEW150

Example: see airport list